createdAt,value
2023-02-22T00:02:14.072Z,60.55
2023-02-22T00:04:59.594Z,61.13
2023-02-22T00:07:44.773Z,60.54
2023-02-22T00:10:30.234Z,61.11
2023-02-22T00:13:16.044Z,61.33
2023-02-22T00:16:01.804Z,61.00
2023-02-22T00:18:50.358Z,60.68
2023-02-22T00:21:37.317Z,60.82
2023-02-22T00:24:25.555Z,60.80
2023-02-22T00:27:11.404Z,60.76
2023-02-22T00:29:56.825Z,61.21
2023-02-22T00:32:42.975Z,61.08
2023-02-22T00:35:30.809Z,61.45
2023-02-22T00:38:18.821Z,61.22
2023-02-22T00:41:04.861Z,61.20
2023-02-22T00:43:50.070Z,61.18
2023-02-22T00:46:35.638Z,61.42
2023-02-22T00:49:23.938Z,61.19
2023-02-22T00:52:09.610Z,61.29
2023-02-22T00:54:57.838Z,61.27
2023-02-22T00:57:43.388Z,61.36
2023-02-22T01:00:31.779Z,61.76
2023-02-22T01:03:20.640Z,61.91
2023-02-22T01:06:07.160Z,61.83
2023-02-22T01:08:52.647Z,61.58
2023-02-22T01:11:38.126Z,62.20
2023-02-22T01:14:26.635Z,61.95
2023-02-22T01:17:11.932Z,62.13
2023-02-22T01:19:57.542Z,62.29
2023-02-22T01:22:45.908Z,61.82
2023-02-22T01:25:32.265Z,62.37
2023-02-22T01:28:21.843Z,62.05
2023-02-22T01:31:10.869Z,62.34
2023-02-22T01:33:56.403Z,62.68
2023-02-22T01:36:42.804Z,62.36
2023-02-22T01:39:28.241Z,62.64
2023-02-22T01:42:13.445Z,63.04
2023-02-22T01:45:30.025Z,63.55
2023-02-22T01:48:53.312Z,63.88
2023-02-22T01:51:46.483Z,63.76
2023-02-22T01:54:37.844Z,64.09
2023-02-22T01:57:32.632Z,64.27
2023-02-22T02:00:21.395Z,63.95
2023-02-22T02:03:15.050Z,64.79
2023-02-22T02:06:04.301Z,64.15
2023-02-22T02:09:04.762Z,63.92
2023-02-22T02:11:51.068Z,64.22
2023-02-22T02:14:42.469Z,64.15
2023-02-22T02:17:30.899Z,64.14
2023-02-22T02:20:59.197Z,64.51
2023-02-22T02:24:20.733Z,64.25
2023-02-22T02:27:12.520Z,64.77
2023-02-22T02:30:28.887Z,64.71
2023-02-22T02:33:29.801Z,64.38
2023-02-22T02:36:34.467Z,64.71
2023-02-22T02:39:28.656Z,64.50
2023-02-22T02:42:22.174Z,64.36
2023-02-22T02:45:13.470Z,65.12
2023-02-22T02:48:01.003Z,64.70
2023-02-22T02:50:49.632Z,64.71
2023-02-22T02:53:39.536Z,65.27
2023-02-22T02:56:25.662Z,65.36
2023-02-22T02:59:30.181Z,64.91
2023-02-22T03:02:24.984Z,65.85
2023-02-22T03:05:13.490Z,67.20
2023-02-22T03:08:18.052Z,68.66
2023-02-22T03:11:15.192Z,71.04
2023-02-22T03:14:18.493Z,71.76
2023-02-22T03:17:22.813Z,72.01
2023-02-22T03:20:16.873Z,73.35
2023-02-22T03:23:13.779Z,74.76
2023-02-22T03:26:09.719Z,75.24
2023-02-22T03:28:58.720Z,75.71
2023-02-22T03:31:53.335Z,76.03
2023-02-22T03:34:53.017Z,76.24
2023-02-22T03:37:48.806Z,76.25
2023-02-22T03:40:43.513Z,76.29
2023-02-22T03:43:37.968Z,75.88
2023-02-22T03:46:30.151Z,75.80
2023-02-22T03:49:30.189Z,75.86
2023-02-22T03:52:16.058Z,75.81
2023-02-22T03:55:03.012Z,75.73
2023-02-22T03:57:51.800Z,76.38
2023-02-22T04:00:37.372Z,75.91
2023-02-22T04:03:23.446Z,75.62
2023-02-22T04:06:10.437Z,75.82
2023-02-22T04:08:56.337Z,75.62
2023-02-22T04:11:42.052Z,75.48
2023-02-22T04:14:30.549Z,75.75
2023-02-22T04:17:19.493Z,75.41
2023-02-22T04:20:07.215Z,75.54
2023-02-22T04:23:18.663Z,75.61
2023-02-22T04:26:03.962Z,75.85
2023-02-22T04:28:50.132Z,76.04
2023-02-22T04:31:38.083Z,76.05
2023-02-22T04:34:24.556Z,75.99
2023-02-22T04:37:10.663Z,76.03
2023-02-22T04:39:56.132Z,75.86
2023-02-22T04:42:41.573Z,75.90
2023-02-22T04:45:27.403Z,76.12
2023-02-22T04:48:14.107Z,76.19
2023-02-22T04:50:59.976Z,76.01
2023-02-22T04:53:48.978Z,75.93
2023-02-22T04:56:34.668Z,76.20
2023-02-22T04:59:20.159Z,76.29
2023-02-22T05:02:12.328Z,75.99
2023-02-22T05:04:57.896Z,76.15
2023-02-22T05:07:43.149Z,76.14
2023-02-22T05:10:29.658Z,76.05
2023-02-22T05:13:15.210Z,76.19
2023-02-22T05:16:04.145Z,76.45
2023-02-22T05:18:49.912Z,76.02
2023-02-22T05:21:35.462Z,76.56
2023-02-22T05:24:20.867Z,76.34
2023-02-22T05:27:06.665Z,76.28
2023-02-22T05:29:52.439Z,76.35
2023-02-22T05:32:38.249Z,76.61
2023-02-22T05:35:23.711Z,76.51
2023-02-22T05:38:14.980Z,76.63
2023-02-22T05:41:01.033Z,76.95
2023-02-22T05:43:46.583Z,76.75
2023-02-22T05:46:32.145Z,77.08
2023-02-22T05:49:17.760Z,77.07
2023-02-22T05:52:03.090Z,77.21
2023-02-22T05:54:48.448Z,76.87
2023-02-22T05:57:34.850Z,77.12
2023-02-22T06:00:31.263Z,76.86
2023-02-22T06:03:17.369Z,76.99
2023-02-22T06:06:02.944Z,76.69
2023-02-22T06:08:48.392Z,76.73
2023-02-22T06:11:33.779Z,76.48
2023-02-22T06:14:26.652Z,76.83
2023-02-22T06:17:15.762Z,76.57
2023-02-22T06:20:02.880Z,76.91
2023-02-22T06:22:55.032Z,76.87
2023-02-22T06:25:40.275Z,76.54
2023-02-22T06:28:26.444Z,77.33
2023-02-22T06:31:12.612Z,77.21
2023-02-22T06:33:58.906Z,77.38
2023-02-22T06:36:47.827Z,77.65
2023-02-22T06:39:33.201Z,77.23
2023-02-22T06:42:18.874Z,76.93
2023-02-22T06:45:08.116Z,76.74
2023-02-22T06:47:53.843Z,76.72
2023-02-22T06:50:39.921Z,76.83
2023-02-22T06:53:25.368Z,76.87
2023-02-22T06:56:14.082Z,76.66
2023-02-22T06:59:01.599Z,76.22
2023-02-22T07:01:47.993Z,76.66
2023-02-22T07:04:37.279Z,76.63
2023-02-22T07:07:23.724Z,77.02
2023-02-22T07:10:20.764Z,76.90
2023-02-22T07:13:08.962Z,76.64
2023-02-22T07:15:54.585Z,77.06
2023-02-22T07:18:40.918Z,77.72
2023-02-22T07:21:30.966Z,76.77
2023-02-22T07:24:16.696Z,76.13
2023-02-22T07:27:02.778Z,76.29
2023-02-22T07:29:48.172Z,76.05
2023-02-22T07:32:33.690Z,75.80
2023-02-22T07:35:25.355Z,76.10
2023-02-22T07:38:11.193Z,74.97
2023-02-22T07:40:57.835Z,75.09
2023-02-22T07:43:43.572Z,74.68
2023-02-22T07:46:29.857Z,74.42
2023-02-22T07:49:16.006Z,73.51
2023-02-22T07:52:02.093Z,74.20
2023-02-22T07:54:49.369Z,74.33
2023-02-22T07:57:35.288Z,73.84
2023-02-22T08:00:35.745Z,74.30
2023-02-22T08:03:28.972Z,75.10
2023-02-22T08:06:14.741Z,74.33
2023-02-22T08:09:00.543Z,74.02
2023-02-22T08:11:46.411Z,74.71
2023-02-22T08:14:32.014Z,73.36
2023-02-22T08:17:17.515Z,72.18
2023-02-22T08:20:03.310Z,73.12
2023-02-22T08:22:49.344Z,72.25
2023-02-22T08:25:35.400Z,72.32
2023-02-22T08:28:23.776Z,72.46
2023-02-22T08:31:09.408Z,72.12
2023-02-22T08:33:55.026Z,71.72
2023-02-22T08:36:42.505Z,71.79
2023-02-22T08:39:27.901Z,70.99
2023-02-22T08:42:14.259Z,71.41
2023-02-22T08:44:59.712Z,72.05
2023-02-22T08:47:47.191Z,71.74
2023-02-22T08:50:34.385Z,71.83
2023-02-22T08:53:20.440Z,70.61
2023-02-22T08:56:06.056Z,71.69
2023-02-22T08:58:51.794Z,71.25
2023-02-22T09:01:37.849Z,70.62
2023-02-22T09:04:23.820Z,69.56
2023-02-22T09:07:09.523Z,69.59
2023-02-22T09:09:55.560Z,70.67
2023-02-22T09:12:42.839Z,70.82
2023-02-22T09:15:29.895Z,69.00
2023-02-22T09:18:15.111Z,69.00
2023-02-22T09:21:00.504Z,68.79
2023-02-22T09:23:48.613Z,68.19
2023-02-22T09:26:42.749Z,67.86
2023-02-22T09:29:28.940Z,67.99
2023-02-22T09:32:18.065Z,68.32
2023-02-22T09:35:04.047Z,69.05
2023-02-22T09:37:49.923Z,69.32
2023-02-22T09:40:45.433Z,69.19
2023-02-22T09:43:40.689Z,69.25
2023-02-22T09:46:37.914Z,69.18
2023-02-22T09:49:39.873Z,69.22
2023-02-22T09:52:32.812Z,69.75
2023-02-22T09:55:39.594Z,69.61
2023-02-22T09:58:33.649Z,69.18
2023-02-22T10:01:27.217Z,69.63
2023-02-22T10:04:18.873Z,69.76
2023-02-22T10:07:15.743Z,69.40
2023-02-22T10:10:06.501Z,68.84
2023-02-22T10:13:05.691Z,68.04
2023-02-22T10:16:00.928Z,67.92
2023-02-22T10:19:11.120Z,68.17
2023-02-22T10:22:22.542Z,67.54
2023-02-22T10:25:23.816Z,68.50
2023-02-22T10:28:13.498Z,67.45
2023-02-22T10:31:07.348Z,66.98
2023-02-22T10:34:00.935Z,67.60
2023-02-22T10:36:49.976Z,67.47
2023-02-22T10:39:38.978Z,68.32
2023-02-22T10:42:28.497Z,67.00
2023-02-22T10:45:35.925Z,66.33
2023-02-22T10:48:24.294Z,66.90
2023-02-22T10:51:10.488Z,66.33
2023-02-22T10:54:08.959Z,66.54
2023-02-22T10:56:56.958Z,66.63
2023-02-22T10:59:42.549Z,66.29
2023-02-22T11:02:31.590Z,67.46
2023-02-22T11:05:38.728Z,65.73
2023-02-22T11:08:30.770Z,65.55
2023-02-22T11:11:25.975Z,65.33
2023-02-22T11:14:24.582Z,65.38
2023-02-22T11:17:18.125Z,64.28
2023-02-22T11:20:04.018Z,63.31
2023-02-22T11:22:54.595Z,64.64
2023-02-22T11:25:42.641Z,65.13
2023-02-22T11:28:33.350Z,64.95
2023-02-22T11:31:25.825Z,64.32
2023-02-22T11:34:45.763Z,62.56
2023-02-22T11:37:39.418Z,63.14
2023-02-22T11:40:25.279Z,64.23
2023-02-22T11:43:19.294Z,61.83
2023-02-22T11:46:12.201Z,61.93
2023-02-22T11:49:09.105Z,60.64
2023-02-22T11:52:29.992Z,61.65
2023-02-22T11:55:41.882Z,58.85
2023-02-22T11:58:41.588Z,59.65
2023-02-22T12:01:32.674Z,57.95
2023-02-22T12:04:50.338Z,58.71
2023-02-22T12:08:20.050Z,57.17
2023-02-22T12:11:22.210Z,58.83
2023-02-22T12:14:35.970Z,57.09
2023-02-22T12:17:59.776Z,56.66
2023-02-22T12:20:54.987Z,56.85
2023-02-22T12:23:40.978Z,56.37
2023-02-22T12:26:34.347Z,56.94
2023-02-22T12:30:13.020Z,56.89
2023-02-22T12:33:06.151Z,55.65
2023-02-22T12:35:55.866Z,53.84
2023-02-22T12:38:48.495Z,55.37
2023-02-22T12:41:42.515Z,56.44
2023-02-22T12:44:38.616Z,56.52
2023-02-22T12:47:37.799Z,56.84
2023-02-22T12:50:28.584Z,57.10
2023-02-22T12:53:25.771Z,56.88
2023-02-22T12:56:28.289Z,57.03
2023-02-22T12:59:32.277Z,57.79
2023-02-22T13:02:34.994Z,56.68
2023-02-22T13:05:21.477Z,56.94
2023-02-22T13:08:35.342Z,56.83
2023-02-22T13:11:26.716Z,55.94
2023-02-22T13:14:33.800Z,56.27
2023-02-22T13:17:31.444Z,57.07
2023-02-22T13:20:18.431Z,56.27
2023-02-22T13:23:14.194Z,56.62
2023-02-22T13:26:09.098Z,57.68
2023-02-22T13:29:03.030Z,58.06
2023-02-22T13:32:02.809Z,58.63
2023-02-22T13:35:06.614Z,58.57
2023-02-22T13:38:01.617Z,59.44
2023-02-22T13:40:53.752Z,59.19
2023-02-22T13:44:16.954Z,59.36
2023-02-22T13:47:27.634Z,59.25
2023-02-22T13:50:28.460Z,60.26
2023-02-22T13:53:33.016Z,60.37
2023-02-22T13:56:20.227Z,60.51
2023-02-22T13:59:06.051Z,60.04
2023-02-22T14:01:53.608Z,60.24
2023-02-22T14:04:41.268Z,60.34
2023-02-22T14:07:29.729Z,59.02
2023-02-22T14:10:49.039Z,59.79
2023-02-22T14:13:57.288Z,60.30
2023-02-22T14:16:43.591Z,60.51
2023-02-22T14:19:29.728Z,59.65
2023-02-22T14:22:27.870Z,59.11
2023-02-22T14:25:28.685Z,58.92
2023-02-22T14:28:35.673Z,59.61
2023-02-22T14:31:37.914Z,59.65
2023-02-22T14:35:14.245Z,60.55
2023-02-22T14:38:18.257Z,60.79
2023-02-22T14:41:05.329Z,60.28
2023-02-22T14:43:53.545Z,59.54
2023-02-22T14:46:42.713Z,60.17
2023-02-22T14:49:32.014Z,60.54
2023-02-22T14:52:39.610Z,60.72
2023-02-22T14:55:26.572Z,60.72
2023-02-22T14:58:12.044Z,60.96
2023-02-22T15:00:59.041Z,61.07
2023-02-22T15:03:51.357Z,61.11
2023-02-22T15:06:39.431Z,61.42
2023-02-22T15:09:34.693Z,61.45
2023-02-22T15:12:30.049Z,61.57
2023-02-22T15:15:25.003Z,61.52
2023-02-22T15:18:30.111Z,60.21
2023-02-22T15:21:20.997Z,59.87
2023-02-22T15:24:10.471Z,60.22
2023-02-22T15:27:05.856Z,60.68
2023-02-22T15:29:59.306Z,61.05
2023-02-22T15:33:01.152Z,61.09
2023-02-22T15:35:55.268Z,61.45
2023-02-22T15:38:40.588Z,61.54
2023-02-22T15:41:38.545Z,61.28
2023-02-22T15:44:24.338Z,61.44
2023-02-22T15:47:32.249Z,61.25
2023-02-22T15:50:23.843Z,61.36
2023-02-22T15:53:27.060Z,61.96
2023-02-22T15:56:16.922Z,61.25
2023-02-22T15:59:14.479Z,61.77
2023-02-22T16:02:00.608Z,62.22
2023-02-22T16:04:59.045Z,61.50
2023-02-22T16:07:50.938Z,61.48
2023-02-22T16:10:39.427Z,62.26
2023-02-22T16:13:32.867Z,62.26
2023-02-22T16:16:21.439Z,62.26
2023-02-22T16:19:42.647Z,62.36
2023-02-22T16:22:35.007Z,62.66
2023-02-22T16:25:24.927Z,63.18
2023-02-22T16:28:35.611Z,62.86
2023-02-22T16:31:25.275Z,63.00
2023-02-22T16:34:10.994Z,62.97
2023-02-22T16:36:56.878Z,62.26
2023-02-22T16:39:45.607Z,61.94
2023-02-22T16:42:32.474Z,62.21
2023-02-22T16:45:19.477Z,62.58
2023-02-22T16:48:18.987Z,63.08
2023-02-22T16:51:20.439Z,62.67
2023-02-22T16:54:13.000Z,62.94
2023-02-22T16:57:02.317Z,63.14
2023-02-22T16:59:52.632Z,62.45
2023-02-22T17:02:39.839Z,63.14
2023-02-22T17:05:30.226Z,63.37
2023-02-22T17:08:17.089Z,64.26
2023-02-22T17:11:04.378Z,64.76
2023-02-22T17:13:51.766Z,64.72
2023-02-22T17:16:37.121Z,65.15
2023-02-22T17:19:24.391Z,65.26
2023-02-22T17:22:21.765Z,65.47
2023-02-22T17:25:23.071Z,66.10
2023-02-22T17:28:10.174Z,65.77
2023-02-22T17:31:01.463Z,65.58
2023-02-22T17:33:48.078Z,66.12
2023-02-22T17:36:36.523Z,65.64
2023-02-22T17:39:24.678Z,65.68
2023-02-22T17:42:10.318Z,65.06
2023-02-22T17:44:56.261Z,65.14
2023-02-22T17:47:46.632Z,65.31
2023-02-22T17:50:32.387Z,65.05
2023-02-22T17:53:25.981Z,65.33
2023-02-22T17:56:18.472Z,64.85
2023-02-22T17:59:03.958Z,64.72
2023-02-22T18:01:52.913Z,64.44
2023-02-22T18:04:40.395Z,64.51
2023-02-22T18:07:26.379Z,63.68
2023-02-22T18:10:13.178Z,62.95
2023-02-22T18:13:02.200Z,63.21
2023-02-22T18:15:48.583Z,63.35
2023-02-22T18:18:34.547Z,63.58
2023-02-22T18:21:22.069Z,63.99
2023-02-22T18:24:11.247Z,64.15
2023-02-22T18:26:57.598Z,64.91
2023-02-22T18:29:43.422Z,65.10
2023-02-22T18:32:32.223Z,65.35
2023-02-22T18:35:18.446Z,65.69
2023-02-22T18:38:05.105Z,65.89
2023-02-22T18:41:05.031Z,65.66
2023-02-22T18:43:54.050Z,65.53
2023-02-22T18:46:40.230Z,65.12
2023-02-22T18:49:27.128Z,64.59
2023-02-22T18:52:13.083Z,64.63
2023-02-22T18:55:00.015Z,64.15
2023-02-22T18:57:47.117Z,64.78
2023-02-22T19:00:36.337Z,64.18
2023-02-22T19:03:24.951Z,63.46
2023-02-22T19:06:13.157Z,63.52
2023-02-22T19:09:01.937Z,63.34
2023-02-22T19:11:50.444Z,62.90
2023-02-22T19:14:35.949Z,62.12
2023-02-22T19:17:22.374Z,62.60
2023-02-22T19:20:10.682Z,62.63
2023-02-22T19:22:56.309Z,62.91
2023-02-22T19:25:42.136Z,62.94
2023-02-22T19:28:34.040Z,62.88
2023-02-22T19:31:31.238Z,63.34
2023-02-22T19:34:19.842Z,63.92
2023-02-22T19:37:06.005Z,64.10
2023-02-22T19:39:52.290Z,64.27
2023-02-22T19:42:38.038Z,65.02
2023-02-22T19:45:24.914Z,64.63
2023-02-22T19:48:13.075Z,64.80
2023-02-22T19:51:11.317Z,65.00
2023-02-22T19:53:59.836Z,65.25
2023-02-22T19:56:51.610Z,65.02
2023-02-22T19:59:37.909Z,65.37
2023-02-22T20:02:27.249Z,65.72
2023-02-22T20:05:16.405Z,65.97
2023-02-22T20:08:02.038Z,66.32
2023-02-22T20:10:47.843Z,66.10
2023-02-22T20:13:34.230Z,66.39
2023-02-22T20:16:19.610Z,66.35
2023-02-22T20:19:05.341Z,66.82
2023-02-22T20:21:52.508Z,66.93
2023-02-22T20:24:38.473Z,66.82
2023-02-22T20:27:24.622Z,67.13
2023-02-22T20:30:11.145Z,67.40
2023-02-22T20:32:56.781Z,67.42
2023-02-22T20:35:42.538Z,67.58
2023-02-22T20:38:27.937Z,67.57
2023-02-22T20:41:17.221Z,67.61
2023-02-22T20:44:07.081Z,67.21
2023-02-22T20:46:52.700Z,67.34
2023-02-22T20:49:38.639Z,67.05
2023-02-22T20:52:24.232Z,66.92
2023-02-22T20:55:11.602Z,67.27
2023-02-22T20:57:57.336Z,66.63
2023-02-22T21:00:43.268Z,67.12
2023-02-22T21:03:35.915Z,66.72
2023-02-22T21:06:22.202Z,66.35
2023-02-22T21:09:13.610Z,66.37
2023-02-22T21:11:58.802Z,66.50
2023-02-22T21:14:44.273Z,66.46
2023-02-22T21:17:30.862Z,66.73
2023-02-22T21:20:21.765Z,67.04
2023-02-22T21:23:12.254Z,66.61
2023-02-22T21:25:57.890Z,66.74
2023-02-22T21:28:51.407Z,66.75
2023-02-22T21:31:38.264Z,66.71
2023-02-22T21:34:23.678Z,67.11
2023-02-22T21:37:09.183Z,67.02
2023-02-22T21:39:54.654Z,67.26
2023-02-22T21:42:40.683Z,67.65
2023-02-22T21:45:27.609Z,67.14
2023-02-22T21:48:13.520Z,67.53
2023-02-22T21:50:59.086Z,67.43
2023-02-22T21:53:47.516Z,68.05
2023-02-22T21:56:37.808Z,68.49
2023-02-22T21:59:23.862Z,68.93
2023-02-22T22:02:10.654Z,69.33
2023-02-22T22:04:56.717Z,69.38
2023-02-22T22:07:44.805Z,69.57
2023-02-22T22:10:37.789Z,69.67
2023-02-22T22:13:25.798Z,69.62
2023-02-22T22:16:14.895Z,69.56
2023-02-22T22:19:00.557Z,69.47
2023-02-22T22:21:53.625Z,69.00
2023-02-22T22:24:45.546Z,68.89
2023-02-22T22:27:31.208Z,68.99
2023-02-22T22:30:17.029Z,68.93
2023-02-22T22:33:06.368Z,68.65
2023-02-22T22:35:51.872Z,68.56
2023-02-22T22:38:40.475Z,68.53
2023-02-22T22:41:28.347Z,68.63
2023-02-22T22:44:16.325Z,68.91
2023-02-22T22:47:05.967Z,68.76
2023-02-22T22:49:52.901Z,68.15
2023-02-22T22:52:41.334Z,68.57
2023-02-22T22:55:27.083Z,68.53
2023-02-22T22:58:13.607Z,69.08
2023-02-22T23:01:02.475Z,69.32
2023-02-22T23:03:59.826Z,69.21
2023-02-22T23:06:50.529Z,68.73
2023-02-22T23:09:38.769Z,68.47
2023-02-22T23:12:31.466Z,68.75
2023-02-22T23:15:18.080Z,68.02
2023-02-22T23:18:03.843Z,68.47
2023-02-22T23:20:55.117Z,68.46
2023-02-22T23:23:41.189Z,68.23
2023-02-22T23:26:26.924Z,69.19
2023-02-22T23:29:13.274Z,69.26
2023-02-22T23:31:58.764Z,68.88
2023-02-22T23:34:44.623Z,68.84
2023-02-22T23:37:38.287Z,68.42
2023-02-22T23:40:25.980Z,68.75
2023-02-22T23:43:12.060Z,68.93
2023-02-22T23:46:01.914Z,69.02
2023-02-22T23:48:52.907Z,68.93
2023-02-22T23:51:44.612Z,69.16
2023-02-22T23:54:36.128Z,68.92
2023-02-22T23:57:21.855Z,68.61
